Portland, Colorado
Current Conditions -  °F | °C
As of 6:25 AM on Monday 24 Nov 2014 (Local Time) from K1V6 Reporting Station
Clear Clear  
Wind Chill: 22°   Ceiling: Unl
Heat Index: 34°   Visibility: 10mi
Dew Point:   Wind: 23mph
Humidity: 28%   Direction: 270°W
Pressure: 29.93"   Gusts: 30mph
Location:  38.3191°N, 105.161°W
Report Text: K1V6 241325Z AUTO 27020G26KT 10SM CLR 01/M16 A2993 RMK AO2
Loading
Personal Weather Stations






























Interactive Weather Map New forecast layout! Learn more

10-Day Weather Forecast

Advertisements
Track Severe Weather on mobile